createdAt,value
2019-02-11T00:00:07.796Z,998.03
2019-02-11T00:01:07.824Z,998.05
2019-02-11T00:02:07.820Z,998.11
2019-02-11T00:03:07.761Z,998.20
2019-02-11T00:04:07.755Z,998.24
2019-02-11T00:05:07.740Z,998.33
2019-02-11T00:06:07.738Z,998.21
2019-02-11T00:07:07.719Z,998.31
2019-02-11T00:08:07.747Z,998.31
2019-02-11T00:09:07.700Z,998.32
2019-02-11T00:10:07.688Z,998.37
2019-02-11T00:11:07.679Z,998.39
2019-02-11T00:12:07.670Z,998.44
2019-02-11T00:13:10.605Z,998.41
2019-02-11T00:14:07.685Z,998.50
2019-02-11T00:15:07.638Z,998.72
2019-02-11T00:16:07.624Z,998.50
2019-02-11T00:17:07.615Z,998.66
2019-02-11T00:18:07.602Z,998.66
2019-02-11T00:19:07.632Z,998.67
2019-02-11T00:20:07.577Z,998.73
2019-02-11T00:21:07.614Z,998.74
2019-02-11T00:22:07.557Z,998.69
2019-02-11T00:23:07.543Z,998.88
2019-02-11T00:24:07.578Z,998.81
2019-02-11T00:25:07.526Z,998.77
2019-02-11T00:26:07.515Z,998.79
2019-02-11T00:27:07.502Z,998.90
2019-02-11T00:28:07.495Z,998.90
2019-02-11T00:29:07.492Z,999.03
2019-02-11T00:30:07.521Z,998.95
2019-02-11T00:31:07.462Z,999.07
2019-02-11T00:32:07.455Z,999.07
2019-02-11T00:33:07.438Z,998.93
2019-02-11T00:34:07.435Z,999.09
2019-02-11T00:35:07.416Z,999.12
2019-02-11T00:36:07.444Z,999.17
2019-02-11T00:37:07.395Z,999.11
2019-02-11T00:38:07.387Z,999.18
2019-02-11T00:39:07.377Z,999.16
2019-02-11T00:40:07.364Z,999.22
2019-02-11T00:41:07.390Z,999.44
2019-02-11T00:42:07.341Z,999.23
2019-02-11T00:43:07.335Z,999.36
2019-02-11T00:44:07.355Z,999.38
2019-02-11T00:45:07.349Z,999.37
2019-02-11T00:46:07.297Z,999.50
2019-02-11T00:47:07.284Z,999.40
2019-02-11T00:48:07.331Z,999.59
2019-02-11T00:49:07.266Z,999.60
2019-02-11T00:50:07.253Z,999.47
2019-02-11T00:51:07.288Z,999.75
2019-02-11T00:52:07.231Z,999.46
2019-02-11T00:53:07.260Z,999.72
2019-02-11T00:54:07.249Z,999.57
2019-02-11T00:55:07.199Z,999.59
2019-02-11T00:56:07.190Z,999.58
2019-02-11T00:57:07.176Z,999.55
2019-02-11T00:58:07.168Z,999.62
2019-02-11T00:59:07.196Z,999.70
2019-02-11T01:00:07.144Z,999.70
2019-02-11T01:01:07.131Z,999.64
2019-02-11T01:02:07.123Z,999.80
2019-02-11T01:03:07.115Z,1000.08
2019-02-11T01:04:07.108Z,999.81
2019-02-11T01:05:07.134Z,999.75
2019-02-11T01:06:07.079Z,999.79
2019-02-11T01:07:07.726Z,999.81
2019-02-11T01:08:07.057Z,999.97
2019-02-11T01:09:07.047Z,999.80
2019-02-11T01:10:07.036Z,999.98
2019-02-11T01:11:07.070Z,1000.10
2019-02-11T01:12:07.021Z,1000.14
2019-02-11T01:13:07.002Z,999.94
2019-02-11T01:14:07.034Z,1000.10
2019-02-11T01:15:06.984Z,999.94
2019-02-11T01:16:06.973Z,1000.25
2019-02-11T01:17:06.963Z,1000.13
2019-02-11T01:18:06.988Z,1000.13
2019-02-11T01:19:06.943Z,1000.15
2019-02-11T01:20:06.967Z,1000.32
2019-02-11T01:21:06.914Z,1000.23
2019-02-11T01:22:06.912Z,1000.37
2019-02-11T01:23:06.894Z,1000.36
2019-02-11T01:24:06.887Z,1000.34
2019-02-11T01:25:06.876Z,1000.40
2019-02-11T01:26:06.912Z,1000.37
2019-02-11T01:27:06.877Z,1000.48
2019-02-11T01:28:06.897Z,1000.45
2019-02-11T01:29:06.829Z,1000.51
2019-02-11T01:30:06.871Z,1000.56
2019-02-11T01:31:06.807Z,1000.58
2019-02-11T01:32:06.800Z,1000.70
2019-02-11T01:33:06.796Z,1000.72
2019-02-11T01:34:06.780Z,1000.71
2019-02-11T01:35:06.768Z,1000.65
2019-02-11T01:36:06.827Z,1000.77
2019-02-11T01:37:06.781Z,1000.74
2019-02-11T01:38:06.734Z,1000.78
2019-02-11T01:39:06.765Z,1000.79
2019-02-11T01:40:06.716Z,1000.79
2019-02-11T01:41:06.702Z,1000.81
2019-02-11T01:42:06.694Z,1000.84
2019-02-11T01:43:06.680Z,1001.00
2019-02-11T01:44:06.667Z,1000.92
2019-02-11T01:45:06.701Z,1000.98
2019-02-11T01:46:06.644Z,1001.01
2019-02-11T01:47:06.633Z,1001.13
2019-02-11T01:48:06.629Z,1001.03
2019-02-11T01:49:06.613Z,1001.02
2019-02-11T01:50:06.604Z,1001.04
2019-02-11T01:51:06.632Z,1001.00
2019-02-11T01:52:06.587Z,1001.02
2019-02-11T01:53:06.565Z,1001.10
2019-02-11T01:54:06.560Z,1001.15
2019-02-11T01:55:06.547Z,1001.15
2019-02-11T01:56:06.588Z,1000.96
2019-02-11T01:57:06.530Z,1001.10
2019-02-11T01:58:06.528Z,1001.12
2019-02-11T01:59:06.502Z,1001.12
2019-02-11T02:00:06.495Z,1001.29
2019-02-11T02:01:06.486Z,1001.28
2019-02-11T02:02:06.518Z,1001.34
2019-02-11T02:03:06.472Z,1001.82
2019-02-11T02:04:06.447Z,1001.58
2019-02-11T02:05:06.437Z,1001.36
2019-02-11T02:06:06.443Z,1001.44
2019-02-11T02:07:06.459Z,1001.59
2019-02-11T02:08:06.406Z,1001.46
2019-02-11T02:09:06.393Z,1001.51
2019-02-11T02:10:06.381Z,1001.46
2019-02-11T02:11:06.381Z,1001.45
2019-02-11T02:12:06.366Z,1001.51
2019-02-11T02:13:06.390Z,1001.49
2019-02-11T02:14:06.338Z,1001.54
2019-02-11T02:15:06.329Z,1001.56
2019-02-11T02:16:06.322Z,1001.56
2019-02-11T02:17:06.321Z,1001.56
2019-02-11T02:18:06.333Z,1001.49
2019-02-11T02:19:06.286Z,1001.58
2019-02-11T02:20:06.278Z,1001.66
2019-02-11T02:21:06.263Z,1001.63
2019-02-11T02:22:06.294Z,1001.64
2019-02-11T02:23:06.250Z,1001.66
2019-02-11T02:24:06.228Z,1001.65
2019-02-11T02:25:06.222Z,1001.64
2019-02-11T02:26:06.212Z,1001.66
2019-02-11T02:27:06.240Z,1001.68
2019-02-11T02:28:06.229Z,1001.74
2019-02-11T02:29:06.178Z,1001.63
2019-02-11T02:30:06.174Z,1001.66
2019-02-11T02:31:06.161Z,1001.61
2019-02-11T02:32:06.156Z,1001.68
2019-02-11T02:33:06.131Z,1001.73
2019-02-11T02:34:06.164Z,1001.69
2019-02-11T02:35:06.110Z,1001.76
2019-02-11T02:36:06.115Z,1001.73
2019-02-11T02:37:06.089Z,1001.73
2019-02-11T02:38:06.080Z,1001.71
2019-02-11T02:39:06.109Z,1001.76
2019-02-11T02:40:06.060Z,1001.77
2019-02-11T02:41:06.046Z,1001.74
2019-02-11T02:42:06.041Z,1001.73
2019-02-11T02:43:06.032Z,1001.81
2019-02-11T02:44:06.015Z,1001.79
2019-02-11T02:45:06.041Z,1001.83
2019-02-11T02:46:06.038Z,1001.86
2019-02-11T02:47:05.982Z,1001.85
2019-02-11T02:48:05.971Z,1001.84
2019-02-11T02:49:06.004Z,1001.82
2019-02-11T02:50:05.948Z,1001.82
2019-02-11T02:51:05.943Z,1001.82
2019-02-11T02:52:05.928Z,1001.83
2019-02-11T02:53:05.915Z,1001.81
2019-02-11T02:54:05.913Z,1002.02
2019-02-11T02:55:05.936Z,1001.91
2019-02-11T02:56:05.885Z,1001.86
2019-02-11T02:57:05.868Z,1001.92
2019-02-11T02:58:05.862Z,1001.87
2019-02-11T02:59:05.901Z,1001.88
2019-02-11T03:00:05.843Z,1001.91
2019-02-11T03:01:05.829Z,1001.92
2019-02-11T03:02:05.817Z,1001.94
2019-02-11T03:03:05.815Z,1002.02
2019-02-11T03:04:05.800Z,1001.93
2019-02-11T03:05:05.812Z,1001.97
2019-02-11T03:06:05.778Z,1002.11
2019-02-11T03:07:05.762Z,1002.02
2019-02-11T03:08:05.758Z,1002.18
2019-02-11T03:09:05.777Z,1002.11
2019-02-11T03:10:05.731Z,1002.26
2019-02-11T03:11:05.722Z,1002.21
2019-02-11T03:12:05.707Z,1002.26
2019-02-11T03:13:05.742Z,1002.23
2019-02-11T03:14:06.483Z,1002.18
2019-02-11T03:15:05.679Z,1002.21
2019-02-11T03:16:05.672Z,1002.26
2019-02-11T03:17:05.686Z,1002.31
2019-02-11T03:18:05.647Z,1002.26
2019-02-11T03:19:05.651Z,1002.23
2019-02-11T03:20:05.625Z,1002.24
2019-02-11T03:21:05.618Z,1002.34
2019-02-11T03:22:05.602Z,1002.36
2019-02-11T03:23:05.620Z,1002.42
2019-02-11T03:24:05.606Z,1002.34
2019-02-11T03:25:05.583Z,1002.31
2019-02-11T03:26:05.557Z,1002.46
2019-02-11T03:27:05.548Z,1002.62
2019-02-11T03:28:05.541Z,1002.54
2019-02-11T03:29:05.524Z,1002.40
2019-02-11T03:30:05.562Z,1002.57
2019-02-11T03:31:05.506Z,1002.50
2019-02-11T03:32:05.497Z,1002.65
2019-02-11T03:33:05.480Z,1002.80
2019-02-11T03:34:05.511Z,1002.64
2019-02-11T03:35:05.463Z,1002.63
2019-02-11T03:36:05.458Z,1002.61
2019-02-11T03:37:05.436Z,1002.65
2019-02-11T03:38:05.426Z,1002.75
2019-02-11T03:39:05.417Z,1002.68
2019-02-11T03:40:05.433Z,1002.82
2019-02-11T03:41:05.394Z,1002.84
2019-02-11T03:42:05.422Z,1002.88
2019-02-11T03:43:05.373Z,1002.98
2019-02-11T03:44:14.616Z,1002.92
2019-02-11T03:45:06.351Z,1002.88
2019-02-11T03:46:05.345Z,1002.99
2019-02-11T03:47:05.359Z,1003.01
2019-02-11T03:48:05.327Z,1002.94
2019-02-11T03:49:05.340Z,1003.16
2019-02-11T03:50:05.303Z,1002.98
2019-02-11T03:51:05.293Z,1002.96
2019-02-11T03:52:05.277Z,1003.00
2019-02-11T03:53:05.263Z,1003.01
2019-02-11T03:54:05.252Z,1002.92
2019-02-11T03:55:05.273Z,1003.04
2019-02-11T03:56:05.263Z,1003.00
2019-02-11T03:57:05.223Z,1003.04
2019-02-11T03:58:05.205Z,1003.03
2019-02-11T03:59:05.204Z,1003.14
2019-02-11T04:00:05.234Z,1003.11
2019-02-11T04:01:05.176Z,1003.10
2019-02-11T04:02:05.171Z,1003.08
2019-02-11T04:03:05.156Z,1003.21
2019-02-11T04:04:05.146Z,1003.18
2019-02-11T04:05:05.130Z,1003.30
2019-02-11T04:06:05.153Z,1003.20
2019-02-11T04:07:05.116Z,1003.33
2019-02-11T04:08:05.105Z,1003.31
2019-02-11T04:09:05.092Z,1003.26
2019-02-11T04:10:05.081Z,1003.28
2019-02-11T04:11:05.066Z,1003.33
2019-02-11T04:12:05.090Z,1003.32
2019-02-11T04:13:05.053Z,1003.30
2019-02-11T04:14:05.043Z,1003.32
2019-02-11T04:15:05.028Z,1003.29
2019-02-11T04:16:05.056Z,1003.34
2019-02-11T04:17:05.000Z,1003.35
2019-02-11T04:18:05.000Z,1003.43
2019-02-11T04:19:05.012Z,1003.48
2019-02-11T04:20:04.968Z,1003.47
2019-02-11T04:21:04.997Z,1003.53
2019-02-11T04:22:04.944Z,1003.52
2019-02-11T04:23:04.935Z,1003.55
2019-02-11T04:24:04.929Z,1003.50
2019-02-11T04:25:04.915Z,1003.50
2019-02-11T04:26:04.903Z,1003.65
2019-02-11T04:27:04.931Z,1003.60
2019-02-11T04:28:04.885Z,1003.67
2019-02-11T04:29:04.871Z,1003.70
2019-02-11T04:30:04.871Z,1003.73
2019-02-11T04:31:04.852Z,1003.96
2019-02-11T04:32:04.842Z,1003.78
2019-02-11T04:33:04.862Z,1003.84
2019-02-11T04:34:04.818Z,1003.90
2019-02-11T04:35:04.810Z,1003.90
2019-02-11T04:36:04.796Z,1003.96
2019-02-11T04:37:04.789Z,1003.96
2019-02-11T04:38:04.774Z,1003.99
2019-02-11T04:39:04.790Z,1004.01
2019-02-11T04:40:04.757Z,1003.98
2019-02-11T04:41:04.740Z,1004.01
2019-02-11T04:42:04.732Z,1004.03
2019-02-11T04:43:04.719Z,1004.06
2019-02-11T04:44:04.741Z,1004.03
2019-02-11T04:45:04.730Z,1004.06
2019-02-11T04:46:04.690Z,1004.21
2019-02-11T04:47:04.679Z,1004.33
2019-02-11T04:48:04.664Z,1004.25
2019-02-11T04:49:04.688Z,1004.21
2019-02-11T04:50:04.647Z,1004.21
2019-02-11T04:51:04.633Z,1004.24
2019-02-11T04:52:04.618Z,1004.33
2019-02-11T04:53:04.619Z,1004.25
2019-02-11T04:54:04.601Z,1004.35
2019-02-11T04:55:04.623Z,1004.32
2019-02-11T04:56:04.582Z,1004.49
2019-02-11T04:57:04.572Z,1004.42
2019-02-11T04:58:04.556Z,1004.42
2019-02-11T04:59:04.578Z,1004.47
2019-02-11T05:00:04.542Z,1004.47
2019-02-11T05:01:04.555Z,1004.54
2019-02-11T05:02:04.511Z,1004.53
2019-02-11T05:03:04.499Z,1004.57
2019-02-11T05:04:04.490Z,1004.55
2019-02-11T05:05:04.514Z,1004.59
2019-02-11T05:06:04.506Z,1004.60
2019-02-11T05:07:04.459Z,1004.58
2019-02-11T05:08:04.447Z,1004.60
2019-02-11T05:09:04.435Z,1004.64
2019-02-11T05:10:04.430Z,1004.67
2019-02-11T05:11:04.417Z,1004.68
2019-02-11T05:12:04.437Z,1004.67
2019-02-11T05:13:04.439Z,1004.68
2019-02-11T05:14:04.392Z,1004.71
2019-02-11T05:15:04.367Z,1004.67
2019-02-11T05:16:04.430Z,1004.76
2019-02-11T05:17:04.348Z,1004.79
2019-02-11T05:18:04.336Z,1004.72
2019-02-11T05:19:04.355Z,1004.74
2019-02-11T05:20:04.350Z,1004.72
2019-02-11T05:21:04.315Z,1004.76
2019-02-11T05:22:04.292Z,1004.75
2019-02-11T05:23:04.282Z,1004.78
2019-02-11T05:24:04.278Z,1004.80
2019-02-11T05:25:04.258Z,1004.81
2019-02-11T05:26:04.283Z,1004.88
2019-02-11T05:27:04.246Z,1004.83
2019-02-11T05:28:04.231Z,1004.81
2019-02-11T05:29:04.214Z,1004.86
2019-02-11T05:30:04.216Z,1004.87
2019-02-11T05:31:04.194Z,1004.92
2019-02-11T05:32:04.220Z,1004.97
2019-02-11T05:33:04.182Z,1004.88
2019-02-11T05:34:04.164Z,1004.98
2019-02-11T05:35:04.153Z,1004.93
2019-02-11T05:36:04.139Z,1004.95
2019-02-11T05:37:04.126Z,1004.97
2019-02-11T05:38:04.161Z,1005.05
2019-02-11T05:39:04.108Z,1005.07
2019-02-11T05:40:04.101Z,1005.08
2019-02-11T05:41:04.088Z,1005.09
2019-02-11T05:42:04.072Z,1005.20
2019-02-11T05:43:04.096Z,1005.11
2019-02-11T05:44:05.875Z,1005.10
2019-02-11T05:45:04.041Z,1005.15
2019-02-11T05:46:04.031Z,1005.23
2019-02-11T05:47:04.018Z,1005.22
2019-02-11T05:48:04.042Z,1005.21
2019-02-11T05:49:04.028Z,1005.27
2019-02-11T05:50:03.992Z,1005.31
2019-02-11T05:51:03.975Z,1005.33
2019-02-11T05:52:03.966Z,1005.26
2019-02-11T05:53:03.961Z,1005.29
2019-02-11T05:54:03.976Z,1005.25
2019-02-11T05:55:03.952Z,1005.30
2019-02-11T05:56:03.919Z,1005.25
2019-02-11T05:57:03.910Z,1005.32
2019-02-11T05:58:03.897Z,1005.31
2019-02-11T05:59:03.891Z,1005.37
2019-02-11T06:00:03.933Z,1005.32
2019-02-11T06:01:03.874Z,1005.35
2019-02-11T06:02:03.861Z,1005.35
2019-02-11T06:03:03.859Z,1005.38
2019-02-11T06:04:03.836Z,1005.43
2019-02-11T06:05:03.840Z,1005.44
2019-02-11T06:06:03.851Z,1005.44
2019-02-11T06:07:03.800Z,1005.43
2019-02-11T06:08:03.790Z,1005.47
2019-02-11T06:09:03.785Z,1005.53
2019-02-11T06:10:03.779Z,1005.48
2019-02-11T06:11:03.761Z,1005.53
2019-02-11T06:12:03.782Z,1005.52
2019-02-11T06:13:03.736Z,1005.55
2019-02-11T06:14:03.733Z,1005.58
2019-02-11T06:15:04.829Z,1005.67
2019-02-11T06:16:03.715Z,1005.65
2019-02-11T06:17:03.696Z,1005.67
2019-02-11T06:18:03.732Z,1005.68
2019-02-11T06:19:03.678Z,1005.74
2019-02-11T06:20:03.667Z,1005.74
2019-02-11T06:21:03.688Z,1005.80
2019-02-11T06:22:03.646Z,1005.86
2019-02-11T06:23:03.641Z,1005.88
2019-02-11T06:24:03.618Z,1005.82
2019-02-11T06:25:03.611Z,1005.89
2019-02-11T06:26:03.597Z,1005.92
2019-02-11T06:27:03.633Z,1005.94
2019-02-11T06:28:03.589Z,1005.96
2019-02-11T06:29:03.561Z,1005.96
2019-02-11T06:30:03.550Z,1006.00
2019-02-11T06:31:03.545Z,1006.05
2019-02-11T06:32:03.546Z,1005.98
2019-02-11T06:33:03.551Z,1006.05
2019-02-11T06:34:03.517Z,1006.05
2019-02-11T06:35:03.521Z,1005.97
2019-02-11T06:36:11.741Z,1006.01
2019-02-11T06:37:04.478Z,1006.18
2019-02-11T06:38:03.465Z,1006.09
2019-02-11T06:39:03.487Z,1006.01
2019-02-11T06:40:03.450Z,1005.99
2019-02-11T06:41:03.432Z,1006.08
2019-02-11T06:42:03.418Z,1006.03
2019-02-11T06:43:03.410Z,1006.03
2019-02-11T06:44:03.400Z,1006.11
2019-02-11T06:45:03.430Z,1006.07
2019-02-11T06:46:03.375Z,1006.19
2019-02-11T06:47:03.375Z,1006.31
2019-02-11T06:48:03.357Z,1006.26
2019-02-11T06:49:03.345Z,1006.29
2019-02-11T06:50:03.343Z,1006.33
2019-02-11T06:51:03.356Z,1006.29
2019-02-11T06:52:03.316Z,1006.34
2019-02-11T06:53:03.348Z,1006.37
2019-02-11T06:54:03.325Z,1006.40
2019-02-11T06:55:03.280Z,1006.44
2019-02-11T06:56:03.309Z,1006.43
2019-02-11T06:57:04.292Z,1006.54
2019-02-11T06:58:03.247Z,1006.56
2019-02-11T06:59:03.246Z,1006.59
2019-02-11T07:00:03.227Z,1006.54
2019-02-11T07:01:03.243Z,1006.62
2019-02-11T07:02:03.240Z,1006.64
2019-02-11T07:03:03.206Z,1006.66
2019-02-11T07:04:03.183Z,1006.74
2019-02-11T07:05:03.214Z,1006.72
2019-02-11T07:06:03.193Z,1006.71
2019-02-11T07:07:03.156Z,1006.70
2019-02-11T07:08:03.157Z,1006.84
2019-02-11T07:09:03.126Z,1006.96
2019-02-11T07:10:03.123Z,1007.05
2019-02-11T07:11:03.150Z,1006.94
2019-02-11T07:12:03.121Z,1007.10
2019-02-11T07:13:03.092Z,1007.09
2019-02-11T07:14:03.069Z,1007.03
2019-02-11T07:15:03.097Z,1007.09
2019-02-11T07:16:03.060Z,1007.21
2019-02-11T07:17:03.048Z,1007.19
2019-02-11T07:18:03.029Z,1007.24
2019-02-11T07:19:03.018Z,1007.27
2019-02-11T07:20:03.037Z,1007.29
2019-02-11T07:21:02.998Z,1007.35
2019-02-11T07:22:02.989Z,1007.35
2019-02-11T07:23:02.982Z,1007.56
2019-02-11T07:24:02.968Z,1007.49
2019-02-11T07:25:02.956Z,1007.54
2019-02-11T07:26:02.981Z,1007.54
2019-02-11T07:27:02.955Z,1007.59
2019-02-11T07:28:02.926Z,1007.57
2019-02-11T07:29:02.909Z,1007.60
2019-02-11T07:30:02.938Z,1007.74
2019-02-11T07:31:02.897Z,1007.66
2019-02-11T07:32:02.881Z,1007.66
2019-02-11T07:33:02.865Z,1007.64
2019-02-11T07:34:02.855Z,1007.63
2019-02-11T07:35:02.857Z,1007.68
2019-02-11T07:36:02.865Z,1007.74
2019-02-11T07:37:02.830Z,1007.55
2019-02-11T07:38:02.841Z,1007.63
2019-02-11T07:39:02.807Z,1008.15
2019-02-11T07:40:04.073Z,1007.79
2019-02-11T07:41:02.775Z,1007.84
2019-02-11T07:42:04.670Z,1007.74
2019-02-11T07:43:02.790Z,1007.74
2019-02-11T07:44:02.762Z,1007.76
2019-02-11T07:45:02.776Z,1007.89
2019-02-11T07:46:02.739Z,1008.08
2019-02-11T07:47:02.755Z,1007.80
2019-02-11T07:48:02.702Z,1008.24
2019-02-11T07:49:02.698Z,1007.90
2019-02-11T07:50:02.707Z,1007.92
2019-02-11T07:51:02.721Z,1008.05
2019-02-11T07:52:02.659Z,1007.98
2019-02-11T07:53:02.670Z,1008.21
2019-02-11T07:54:02.637Z,1008.17
2019-02-11T07:55:02.676Z,1008.23
2019-02-11T07:56:02.629Z,1008.12
2019-02-11T07:57:02.625Z,1008.12
2019-02-11T07:58:02.607Z,1008.14
2019-02-11T07:59:02.627Z,1008.30
2019-02-11T08:00:02.631Z,1008.29
2019-02-11T08:01:02.577Z,1008.35
2019-02-11T08:02:02.569Z,1008.38
2019-02-11T08:03:02.549Z,1008.28
2019-02-11T08:04:02.552Z,1008.41
2019-02-11T08:05:02.541Z,1008.31
2019-02-11T08:06:02.573Z,1008.39
2019-02-11T08:07:02.516Z,1008.47
2019-02-11T08:08:02.503Z,1008.46
2019-02-11T08:09:02.495Z,1008.54
2019-02-11T08:10:02.474Z,1008.47
2019-02-11T08:11:02.532Z,1008.48
2019-02-11T08:12:02.450Z,1008.39
2019-02-11T08:13:02.439Z,1008.40
2019-02-11T08:14:02.433Z,1008.38
2019-02-11T08:15:02.438Z,1008.62
2019-02-11T08:16:02.426Z,1008.53
2019-02-11T08:17:02.487Z,1008.44
2019-02-11T08:18:02.392Z,1008.47
2019-02-11T08:19:02.390Z,1008.60
2019-02-11T08:20:02.429Z,1008.55
2019-02-11T08:21:02.360Z,1008.75
2019-02-11T08:22:02.363Z,1008.54
2019-02-11T08:23:11.065Z,1008.62
2019-02-11T08:24:03.321Z,1008.61
2019-02-11T08:25:02.347Z,1008.60
2019-02-11T08:26:02.315Z,1008.63
2019-02-11T08:27:02.302Z,1008.72
2019-02-11T08:28:02.277Z,1008.64
2019-02-11T08:29:02.266Z,1008.60
2019-02-11T08:30:02.256Z,1008.71
2019-02-11T08:31:02.298Z,1008.72
2019-02-11T08:32:02.243Z,1008.88
2019-02-11T08:33:02.241Z,1008.66
2019-02-11T08:34:02.213Z,1008.76
2019-02-11T08:35:02.243Z,1008.82
2019-02-11T08:36:02.200Z,1008.74
2019-02-11T08:37:02.180Z,1008.80
2019-02-11T08:38:02.169Z,1008.75
2019-02-11T08:39:02.287Z,1008.76
2019-02-11T08:40:02.150Z,1008.76
2019-02-11T08:41:02.174Z,1008.90
2019-02-11T08:42:02.125Z,1008.85
2019-02-11T08:43:02.113Z,1008.80
2019-02-11T08:44:02.160Z,1008.77
2019-02-11T08:45:02.128Z,1008.76
2019-02-11T08:46:02.088Z,1008.74
2019-02-11T08:47:02.095Z,1008.83
2019-02-11T08:48:02.063Z,1008.79
2019-02-11T08:49:02.052Z,1008.79
2019-02-11T08:50:02.069Z,1008.94
2019-02-11T08:51:02.074Z,1008.96
2019-02-11T08:52:02.023Z,1008.89
2019-02-11T08:53:02.022Z,1008.82
2019-02-11T08:54:02.036Z,1008.93
2019-02-11T08:55:01.998Z,1008.99
2019-02-11T08:56:03.433Z,1009.13
2019-02-11T08:57:01.968Z,1009.23
2019-02-11T08:58:01.952Z,1009.15
2019-02-11T08:59:01.978Z,1009.14
2019-02-11T09:00:01.938Z,1009.19
2019-02-11T09:01:01.915Z,1009.12
2019-02-11T09:02:01.905Z,1009.13
2019-02-11T09:03:01.911Z,1009.10
2019-02-11T09:04:02.021Z,1009.12
2019-02-11T09:05:01.879Z,1009.18
2019-02-11T09:06:01.879Z,1009.28
2019-02-11T09:07:01.880Z,1009.24
2019-02-11T09:08:01.860Z,1009.21
2019-02-11T09:09:01.834Z,1009.30
2019-02-11T09:10:01.891Z,1009.31
2019-02-11T09:11:01.829Z,1009.30
2019-02-11T09:12:01.834Z,1009.34
2019-02-11T09:13:01.809Z,1009.35
2019-02-11T09:14:01.784Z,1009.38
2019-02-11T09:15:01.763Z,1009.29
2019-02-11T09:16:01.760Z,1009.33
2019-02-11T09:17:09.844Z,1009.38
2019-02-11T09:18:02.764Z,1009.49
2019-02-11T09:19:01.739Z,1009.42
2019-02-11T09:20:01.714Z,1009.42
2019-02-11T09:21:01.701Z,1009.60
2019-02-11T09:22:07.329Z,1009.58
2019-02-11T09:23:02.687Z,1009.55
2019-02-11T09:24:01.698Z,1009.58
2019-02-11T09:25:01.665Z,1009.57
2019-02-11T09:26:01.655Z,1009.68
2019-02-11T09:27:01.677Z,1009.66
2019-02-11T09:28:01.636Z,1009.71
2019-02-11T09:29:01.640Z,1009.69
2019-02-11T09:30:01.604Z,1009.85
2019-02-11T09:31:01.592Z,1009.75
2019-02-11T09:32:01.595Z,1009.81
2019-02-11T09:33:01.603Z,1009.73
2019-02-11T09:34:01.567Z,1009.82
2019-02-11T09:35:01.607Z,1009.79
2019-02-11T09:36:03.351Z,1009.94
2019-02-11T09:37:01.561Z,1009.86
2019-02-11T09:38:01.526Z,1009.90
2019-02-11T09:39:01.505Z,1010.01
2019-02-11T09:40:01.499Z,1010.00
2019-02-11T09:41:01.496Z,1010.03
2019-02-11T09:42:01.480Z,1010.05
2019-02-11T09:43:01.494Z,1010.09
2019-02-11T09:44:01.460Z,1010.26
2019-02-11T09:45:01.492Z,1010.08
2019-02-11T09:46:03.855Z,1010.15
2019-02-11T09:47:01.454Z,1010.31
2019-02-11T09:48:01.409Z,1010.18
2019-02-11T09:49:01.423Z,1010.11
2019-02-11T09:50:01.393Z,1010.28
2019-02-11T09:51:01.402Z,1010.30
2019-02-11T09:52:01.417Z,1010.34
2019-02-11T09:53:01.357Z,1010.42
2019-02-11T09:54:01.345Z,1010.36
2019-02-11T09:55:01.333Z,1010.35
2019-02-11T09:56:01.381Z,1010.31
2019-02-11T09:57:01.316Z,1010.34
2019-02-11T09:58:01.300Z,1010.46
2019-02-11T09:59:01.299Z,1010.45
2019-02-11T10:00:01.290Z,1010.45
2019-02-11T10:01:01.283Z,1010.60
2019-02-11T10:02:01.293Z,1010.63
2019-02-11T10:03:01.277Z,1010.54
2019-02-11T10:04:01.238Z,1010.53
2019-02-11T10:05:01.286Z,1010.58
2019-02-11T10:06:01.216Z,1010.60
2019-02-11T10:07:01.285Z,1010.61
2019-02-11T10:08:01.196Z,1010.71
2019-02-11T10:09:01.182Z,1010.66
2019-02-11T10:10:01.173Z,1010.61
2019-02-11T10:11:01.172Z,1010.68
2019-02-11T10:12:01.148Z,1010.68
2019-02-11T10:13:01.169Z,1010.60
2019-02-11T10:14:01.162Z,1010.94
2019-02-11T10:15:01.122Z,1010.94
2019-02-11T10:16:01.130Z,1010.73
2019-02-11T10:17:01.095Z,1010.84
2019-02-11T10:18:01.118Z,1010.83
2019-02-11T10:19:01.086Z,1010.70
2019-02-11T10:20:01.066Z,1010.87
2019-02-11T10:21:01.069Z,1010.82
2019-02-11T10:22:01.135Z,1010.85
2019-02-11T10:23:01.084Z,1010.77
2019-02-11T10:24:01.019Z,1010.89
2019-02-11T10:25:01.013Z,1010.81
2019-02-11T10:26:00.999Z,1010.90
2019-02-11T10:27:00.997Z,1010.77
2019-02-11T10:28:01.005Z,1010.83
2019-02-11T10:29:00.971Z,1010.87
2019-02-11T10:30:00.962Z,1010.96
2019-02-11T10:31:00.945Z,1011.03
2019-02-11T10:32:00.934Z,1011.01
2019-02-11T10:33:00.952Z,1011.04
2019-02-11T10:34:00.914Z,1011.04
2019-02-11T10:35:00.913Z,1011.09
2019-02-11T10:36:00.936Z,1011.03
2019-02-11T10:37:00.878Z,1011.09
2019-02-11T10:38:00.941Z,1011.05
2019-02-11T10:39:00.858Z,1011.01
2019-02-11T10:40:00.848Z,1011.10
2019-02-11T10:41:00.862Z,1011.05
2019-02-11T10:42:00.823Z,1011.15
2019-02-11T10:43:00.815Z,1011.17
2019-02-11T10:44:00.849Z,1011.22
2019-02-11T10:45:00.790Z,1011.18
2019-02-11T10:46:00.799Z,1011.24
2019-02-11T10:47:00.779Z,1011.33
2019-02-11T10:48:00.823Z,1011.15
2019-02-11T10:49:00.754Z,1011.30
2019-02-11T10:50:00.773Z,1011.28
2019-02-11T10:51:00.744Z,1011.36
2019-02-11T10:52:00.735Z,1011.35
2019-02-11T10:53:00.716Z,1011.36
2019-02-11T10:54:00.691Z,1011.41
2019-02-11T10:55:00.690Z,1011.38
2019-02-11T10:56:00.752Z,1011.38
2019-02-11T10:57:00.665Z,1011.43
2019-02-11T10:58:00.659Z,1011.49
2019-02-11T10:59:00.661Z,1011.37
2019-02-11T11:00:00.633Z,1011.41
2019-02-11T11:01:00.618Z,1011.38
2019-02-11T11:02:00.687Z,1011.48
2019-02-11T11:03:00.628Z,1011.46
2019-02-11T11:04:00.606Z,1011.53
2019-02-11T11:05:00.580Z,1011.51
2019-02-11T11:06:00.568Z,1011.62
2019-02-11T11:07:00.550Z,1011.54
2019-02-11T11:08:00.541Z,1011.56
2019-02-11T11:09:00.565Z,1011.71
2019-02-11T11:10:00.585Z,1011.63
2019-02-11T11:11:00.511Z,1011.79
2019-02-11T11:12:00.538Z,1011.69
2019-02-11T11:13:00.497Z,1011.66
2019-02-11T11:14:00.478Z,1011.64
2019-02-11T11:15:00.475Z,1011.77
2019-02-11T11:16:00.463Z,1011.73
2019-02-11T11:17:00.453Z,1011.83
2019-02-11T11:18:00.473Z,1011.69
2019-02-11T11:19:00.427Z,1011.72
2019-02-11T11:20:00.447Z,1011.67
2019-02-11T11:21:00.402Z,1011.72
2019-02-11T11:22:00.423Z,1011.75
2019-02-11T11:23:00.403Z,1011.70
2019-02-11T11:24:00.369Z,1011.72
2019-02-11T11:25:00.428Z,1011.76
2019-02-11T11:26:00.359Z,1011.70
2019-02-11T11:27:00.387Z,1011.71
2019-02-11T11:28:00.329Z,1011.79
2019-02-11T11:29:00.323Z,1011.74
2019-02-11T11:30:00.365Z,1011.78
2019-02-11T11:31:00.303Z,1011.57
2019-02-11T11:32:00.298Z,1011.76
2019-02-11T11:33:00.310Z,1011.72
2019-02-11T11:34:00.265Z,1011.68
2019-02-11T11:35:00.296Z,1011.67
2019-02-11T11:36:00.273Z,1011.72
2019-02-11T11:37:00.229Z,1011.81
2019-02-11T11:38:00.217Z,1011.73
2019-02-11T11:39:00.216Z,1011.76
2019-02-11T11:40:00.258Z,1011.86
2019-02-11T11:41:00.185Z,1011.83
2019-02-11T11:42:00.199Z,1011.87
2019-02-11T11:43:00.160Z,1011.86
2019-02-11T11:44:00.150Z,1011.81
2019-02-11T11:45:00.180Z,1012.06
2019-02-11T11:46:00.172Z,1011.87
2019-02-11T11:47:00.146Z,1011.91
2019-02-11T11:48:00.154Z,1011.88
2019-02-11T11:49:00.121Z,1011.86
2019-02-11T11:50:00.146Z,1011.93
2019-02-11T11:51:00.085Z,1011.97
2019-02-11T11:52:00.076Z,1012.06
2019-02-11T11:53:00.056Z,1012.21
2019-02-11T11:54:00.090Z,1012.02
2019-02-11T11:55:00.055Z,1012.15
2019-02-11T11:56:02.225Z,1012.11
2019-02-11T11:57:00.029Z,1012.24
2019-02-11T11:58:00.009Z,1012.23
2019-02-11T11:58:59.998Z,1012.18
2019-02-11T12:00:00.012Z,1011.93
2019-02-11T12:00:59.973Z,1012.09
2019-02-11T12:02:00.004Z,1011.95
2019-02-11T12:03:03.523Z,1012.01
2019-02-11T12:03:59.958Z,1012.03
2019-02-11T12:04:59.930Z,1012.06
2019-02-11T12:05:59.942Z,1011.98
2019-02-11T12:06:59.907Z,1012.04